Time;durP1;ratioP1;P1;durP2;ratioP2;P2;SDS_P1;SDS_P2;PMS_P1;PMS_P2;Temp;Humidity;BMP_temperature;BMP_pressure;BME280_temperature;BME280_humidity;BME280_pressure;Samples;Min_cycle;Max_cycle;Signal;HPM_P1;HPM_P2
2021/10/26 00:02:08;;;;;;;27.55;12.45;;;;;;;3.73;60.31;99088.19;5085677;28;20049;-82
2021/10/26 00:04:34;;;;;;;24.98;11.32;;;;;;;3.78;59.86;99091.00;5092998;28;20029;-84
2021/10/26 00:07:00;;;;;;;23.15;12.10;;;;;;;3.81;59.29;99087.84;5072657;28;20028;-84
2021/10/26 00:09:25;;;;;;;23.65;11.73;;;;;;;3.85;60.08;99094.44;5091006;28;20034;-84
2021/10/26 00:11:51;;;;;;;19.08;9.75;;;;;;;3.88;60.32;99088.50;5085982;28;20017;-83
2021/10/26 00:14:17;;;;;;;21.15;10.27;;;;;;;3.96;60.50;99083.78;5080197;28;20028;-84
2021/10/26 00:16:42;;;;;;;22.15;10.60;;;;;;;4.01;59.88;99083.91;5080225;28;20086;-82
2021/10/26 00:19:08;;;;;;;17.33;10.13;;;;;;;4.05;60.64;99087.81;5084121;28;20016;-82
2021/10/26 00:21:34;;;;;;;17.92;9.52;;;;;;;4.09;59.78;99086.28;5085475;28;20020;-82
2021/10/26 00:24:00;;;;;;;20.77;9.57;;;;;;;4.10;60.50;99079.78;5086537;28;20023;-83
2021/10/26 00:26:25;;;;;;;20.05;10.30;;;;;;;4.12;60.08;99083.06;5087888;28;20028;-83
2021/10/26 00:28:51;;;;;;;22.77;9.75;;;;;;;4.19;60.08;99071.28;5087164;28;20036;-83
2021/10/26 00:31:16;;;;;;;21.20;10.40;;;;;;;4.27;60.46;99079.06;5083881;28;20062;-82
2021/10/26 00:33:42;;;;;;;25.70;11.75;;;;;;;4.31;60.41;99069.34;5086996;28;20055;-82
2021/10/26 00:36:07;;;;;;;30.52;12.77;;;;;;;4.39;60.30;99077.09;5084121;28;20097;-83
2021/10/26 00:38:33;;;;;;;27.77;11.90;;;;;;;4.44;60.21;99082.66;5068229;28;20429;-82
2021/10/26 00:40:59;;;;;;;42.08;17.40;;;;;;;4.48;60.38;99083.00;5088054;28;20146;-82
2021/10/26 00:43:25;;;;;;;38.72;17.98;;;;;;;4.47;60.49;99074.03;5088553;28;20062;-82
2021/10/26 00:45:50;;;;;;;42.63;18.30;;;;;;;4.46;59.59;99077.81;5084163;28;20016;-82
2021/10/26 00:48:16;;;;;;;44.58;18.65;;;;;;;4.38;59.49;99075.47;5066256;28;20248;-82
2021/10/26 00:50:42;;;;;;;39.20;18.83;;;;;;;4.30;58.99;99081.25;5087978;28;20020;-83
2021/10/26 00:53:08;;;;;;;40.88;18.50;;;;;;;4.22;59.05;99087.91;5083053;28;20020;-83
2021/10/26 00:55:34;;;;;;;41.28;19.23;;;;;;;4.10;59.16;99079.78;5087610;28;20063;-82
2021/10/26 00:58:00;;;;;;;39.63;18.63;;;;;;;4.04;59.49;99077.19;5088739;28;20031;-82
2021/10/26 01:00:26;;;;;;;48.03;20.15;;;;;;;3.95;59.08;99074.84;5087257;28;20042;-82
2021/10/26 01:02:52;;;;;;;49.40;21.02;;;;;;;3.86;59.33;99078.97;5084059;28;20024;-82
2021/10/26 01:05:17;;;;;;;49.45;20.35;;;;;;;3.74;59.64;99076.25;5082853;28;20101;-82
2021/10/26 01:07:43;;;;;;;51.22;21.90;;;;;;;3.60;59.92;99075.69;5068592;28;20020;-83
2021/10/26 01:10:10;;;;;;;48.47;21.10;;;;;;;3.46;59.22;99074.25;5068326;28;20039;-82
2021/10/26 01:12:36;;;;;;;53.50;21.30;;;;;;;3.33;59.16;99075.28;5079150;28;20032;-82
2021/10/26 01:15:04;;;;;;;52.03;21.08;;;;;;;3.24;59.71;99081.03;5084344;28;20020;-83
2021/10/26 01:17:29;;;;;;;55.08;24.33;;;;;;;3.09;59.58;99073.34;5085522;28;20016;-82
2021/10/26 01:19:56;;;;;;;56.08;25.77;;;;;;;2.99;59.87;99067.66;5090520;28;20013;-82
2021/10/26 01:22:25;;;;;;;61.75;26.13;;;;;;;2.92;59.85;99066.94;5085357;28;20097;-83
2021/10/26 01:24:51;;;;;;;67.30;27.83;;;;;;;2.85;60.25;99072.47;5086878;28;20100;-82
2021/10/26 01:27:17;;;;;;;64.03;28.27;;;;;;;2.86;59.97;99070.56;5058047;28;20044;-83
2021/10/26 01:29:43;;;;;;;51.58;23.17;;;;;;;2.81;60.58;99065.84;5081525;28;20027;-82
2021/10/26 01:32:10;;;;;;;46.90;21.40;;;;;;;2.79;60.09;99071.50;5085264;28;20023;-82
2021/10/26 01:34:36;;;;;;;48.47;22.02;;;;;;;2.78;60.96;99072.56;5091997;28;20020;-82
2021/10/26 01:37:07;;;;;;;43.90;20.48;;;;;;;2.77;60.57;99078.19;5090728;28;20293;-81
2021/10/26 01:39:34;;;;;;;43.47;20.73;;;;;;;2.81;61.29;99071.25;5091376;28;20028;-82
2021/10/26 01:42:00;;;;;;;45.78;21.63;;;;;;;2.91;61.46;99073.41;5086857;28;20153;-83
2021/10/26 01:44:26;;;;;;;39.80;19.17;;;;;;;2.98;61.32;99066.84;5081209;28;20107;-83
2021/10/26 01:46:52;;;;;;;38.20;18.33;;;;;;;3.07;61.35;99064.63;5083619;28;20507;-82
2021/10/26 01:49:19;;;;;;;35.40;16.35;;;;;;;3.16;61.78;99061.59;5084419;28;20024;-82
2021/10/26 01:51:46;;;;;;;37.40;17.52;;;;;;;3.23;61.32;99071.25;5086917;28;20043;-82
2021/10/26 01:54:12;;;;;;;31.65;17.10;;;;;;;3.27;60.88;99077.88;5094350;28;20020;-82
2021/10/26 01:56:38;;;;;;;26.27;15.40;;;;;;;3.28;60.89;99084.09;5089942;28;20147;-82
2021/10/26 01:59:04;;;;;;;33.28;16.33;;;;;;;3.31;61.16;99088.25;5075699;28;20112;-82
2021/10/26 02:01:29;;;;;;;28.60;13.70;;;;;;;3.32;61.20;99079.88;5078421;28;20025;-82
2021/10/26 02:03:54;;;;;;;30.73;15.35;;;;;;;3.36;60.83;99074.81;5081418;28;20028;-83
2021/10/26 02:06:20;;;;;;;33.22;17.15;;;;;;;3.39;60.74;99066.22;5086152;28;20380;-82
2021/10/26 02:08:46;;;;;;;31.90;16.02;;;;;;;3.43;61.50;99070.13;5088588;28;20062;-83
2021/10/26 02:11:12;;;;;;;38.42;18.70;;;;;;;3.46;61.52;99066.09;5091166;28;20102;-83
2021/10/26 02:13:37;;;;;;;41.17;18.13;;;;;;;3.47;61.06;99065.84;5076722;28;20024;-83
2021/10/26 02:16:03;;;;;;;39.10;18.20;;;;;;;3.45;61.59;99073.44;5080029;28;20082;-82
2021/10/26 02:18:29;;;;;;;33.83;17.75;;;;;;;3.46;60.96;99071.53;5089379;28;20024;-81
2021/10/26 02:20:55;;;;;;;44.78;20.27;;;;;;;3.43;61.06;99076.34;5092131;28;20103;-81
2021/10/26 02:23:21;;;;;;;76.25;32.45;;;;;;;3.34;60.96;99080.47;5093062;28;20020;-81
2021/10/26 02:25:46;;;;;;;66.85;32.00;;;;;;;3.15;60.95;99082.44;5096300;28;20027;-82
2021/10/26 02:28:11;;;;;;;70.72;33.15;;;;;;;2.95;60.65;99083.56;5089062;28;20062;-81
2021/10/26 02:30:37;;;;;;;67.03;28.67;;;;;;;2.79;61.32;99079.63;5086444;28;20523;-81
2021/10/26 02:33:02;;;;;;;59.53;28.02;;;;;;;2.72;60.96;99086.19;5089829;28;20016;-81
2021/10/26 02:35:28;;;;;;;49.47;24.65;;;;;;;2.65;61.67;99091.69;5089426;28;20409;-81
2021/10/26 02:37:53;;;;;;;49.83;22.65;;;;;;;2.57;61.05;99083.88;5090411;28;20020;-81
2021/10/26 02:40:19;;;;;;;45.60;21.27;;;;;;;2.47;61.66;99097.97;5086933;28;20024;-82
2021/10/26 02:42:44;;;;;;;46.47;22.38;;;;;;;2.40;61.11;99089.94;5091663;28;20102;-81
2021/10/26 02:45:10;;;;;;;46.97;20.45;;;;;;;2.43;61.66;99084.06;5080157;28;20028;-81
2021/10/26 02:47:37;;;;;;;43.97;20.98;;;;;;;2.42;61.97;99079.72;5087422;28;20020;-81
2021/10/26 02:50:03;;;;;;;44.60;19.75;;;;;;;2.37;61.68;99085.78;5088878;28;20316;-81
2021/10/26 02:52:30;;;;;;;43.13;21.23;;;;;;;2.34;61.67;99094.34;5070283;28;20589;-81
2021/10/26 02:54:55;;;;;;;48.53;21.65;;;;;;;2.32;61.71;99098.34;5088604;28;20621;-81
2021/10/26 02:57:20;;;;;;;42.97;20.38;;;;;;;2.30;62.12;99095.84;5093709;28;20117;-82
2021/10/26 02:59:46;;;;;;;43.85;21.15;;;;;;;2.25;62.22;99090.28;5088146;28;20069;-81
2021/10/26 03:02:11;;;;;;;47.85;21.25;;;;;;;2.21;61.66;99094.53;5080322;28;20027;-81
2021/10/26 03:04:37;;;;;;;47.67;21.92;;;;;;;2.17;61.68;99104.16;5080115;28;20166;-81
2021/10/26 03:07:02;;;;;;;41.90;20.83;;;;;;;2.13;61.56;99102.94;5082903;28;20029;-81
2021/10/26 03:09:27;;;;;;;46.53;22.13;;;;;;;2.07;62.26;99102.78;5083244;28;20382;-81
2021/10/26 03:11:53;;;;;;;40.75;22.10;;;;;;;2.03;62.21;99115.09;5085948;28;20016;-81
2021/10/26 03:14:18;;;;;;;92.63;35.28;;;;;;;2.00;62.58;99110.16;5089264;28;20016;-82
2021/10/26 03:16:44;;;;;;;69.95;29.25;;;;;;;2.01;62.40;99114.50;5088662;28;20552;-82
2021/10/26 03:19:10;;;;;;;62.38;26.85;;;;;;;1.91;61.90;99112.31;5074532;28;20036;-81
2021/10/26 03:21:37;;;;;;;58.13;26.17;;;;;;;1.81;62.08;99119.28;5078015;28;20109;-82
2021/10/26 03:24:03;;;;;;;54.25;26.13;;;;;;;1.74;62.55;99108.53;5083218;28;20032;-82
2021/10/26 03:26:28;;;;;;;58.67;25.38;;;;;;;1.69;62.15;99111.91;5086033;28;20075;-80
2021/10/26 03:28:54;;;;;;;63.50;27.00;;;;;;;1.66;62.47;99106.94;5085919;28;20046;-81
2021/10/26 03:31:21;;;;;;;60.78;26.63;;;;;;;1.68;62.29;99110.25;5089484;28;20099;-81
2021/10/26 03:33:46;;;;;;;58.03;26.90;;;;;;;1.62;62.21;99106.56;5095814;28;20036;-82
2021/10/26 03:36:11;;;;;;;58.88;25.80;;;;;;;1.60;63.12;99115.94;5084133;28;20082;-81
2021/10/26 03:38:37;;;;;;;55.08;25.00;;;;;;;1.56;62.20;99112.84;5086935;28;20063;-81
2021/10/26 03:41:03;;;;;;;51.78;23.60;;;;;;;1.53;62.79;99115.16;5079696;28;20029;-81
2021/10/26 03:43:28;;;;;;;59.25;25.95;;;;;;;1.53;62.82;99109.75;5082591;28;20032;-81
2021/10/26 03:45:54;;;;;;;50.72;24.17;;;;;;;1.55;62.81;99118.47;5068101;28;20048;-81
2021/10/26 03:48:20;;;;;;;50.65;24.02;;;;;;;1.51;63.29;99107.28;5096871;28;20046;-82
2021/10/26 03:50:46;;;;;;;51.13;23.73;;;;;;;1.54;63.92;99109.53;5089956;28;20020;-82
2021/10/26 03:53:11;;;;;;;45.53;21.38;;;;;;;1.58;63.56;99099.94;5088124;28;20020;-82
2021/10/26 03:55:37;;;;;;;42.17;20.92;;;;;;;1.60;63.79;99097.84;5083338;28;20365;-82
2021/10/26 03:58:07;;;;;;;45.78;19.65;;;;;;;1.65;63.21;99099.88;5078654;28;20036;-81
2021/10/26 04:00:33;;;;;;;40.20;18.27;;;;;;;1.67;63.52;99108.59;5082451;28;20040;-81
2021/10/26 04:02:58;;;;;;;42.85;20.00;;;;;;;1.71;63.31;99092.72;5086032;28;20094;-81
2021/10/26 04:05:41;;;;;;;43.92;20.77;;;;;;;1.76;63.57;99095.59;5092306;28;20107;-81
2021/10/26 04:10:57;;;;;;;41.85;21.15;;;;;;;1.95;64.17;99099.16;5089012;28;20070;-81
2021/10/26 04:13:24;;;;;;;41.50;21.05;;;;;;;2.04;63.87;99102.38;5085596;28;20073;-81
2021/10/26 04:15:50;;;;;;;37.13;20.23;;;;;;;2.12;64.30;99088.56;5079712;28;20478;-81
2021/10/26 04:18:16;;;;;;;36.22;18.88;;;;;;;2.17;64.43;99085.22;5066074;28;20124;-80
2021/10/26 04:20:42;;;;;;;37.00;18.35;;;;;;;2.26;64.04;99088.44;5084000;28;20016;-80
2021/10/26 04:23:08;;;;;;;36.28;18.05;;;;;;;2.30;64.02;99085.03;5090561;28;20008;-81
2021/10/26 04:25:34;;;;;;;42.13;18.50;;;;;;;2.29;64.10;99082.56;5087085;28;20028;-80
2021/10/26 04:28:00;;;;;;;45.35;21.83;;;;;;;2.30;64.21;99090.44;5087461;28;20044;-80
2021/10/26 04:30:26;;;;;;;54.92;28.10;;;;;;;2.26;63.97;99096.56;5085139;28;20035;-81
2021/10/26 04:32:52;;;;;;;60.78;29.02;;;;;;;2.20;63.57;99085.56;5078582;28;20089;-80
2021/10/26 04:35:17;;;;;;;58.50;27.27;;;;;;;2.15;64.01;99090.81;5080919;28;20020;-80
2021/10/26 04:37:43;;;;;;;69.82;29.73;;;;;;;2.07;64.46;99083.00;5084153;28;20763;-81
2021/10/26 04:40:09;;;;;;;55.60;26.58;;;;;;;2.01;64.39;99081.22;5088036;28;20440;-81
2021/10/26 04:42:35;;;;;;;63.88;29.45;;;;;;;1.92;63.79;99083.38;5091013;28;20362;-81
2021/10/26 04:45:01;;;;;;;66.45;28.73;;;;;;;1.84;64.05;99078.25;5090201;28;20034;-81
2021/10/26 04:47:27;;;;;;;72.35;31.83;;;;;;;1.76;63.92;99080.22;5090479;28;20036;-82
2021/10/26 04:49:55;;;;;;;67.80;28.30;;;;;;;1.70;63.58;99082.97;5088831;28;20029;-82
2021/10/26 04:52:21;;;;;;;72.55;28.00;;;;;;;1.62;63.81;99089.50;5090149;28;20036;-81
2021/10/26 04:54:47;;;;;;;60.85;26.95;;;;;;;1.59;63.37;99088.06;5093718;28;20434;-81
2021/10/26 04:57:12;;;;;;;62.03;27.90;;;;;;;1.57;64.03;99092.88;5111479;28;20027;-82
2021/10/26 04:59:38;;;;;;;66.75;28.80;;;;;;;1.54;64.38;99089.78;5102693;28;20028;-82
2021/10/26 05:02:03;;;;;;;67.30;29.40;;;;;;;1.51;64.04;99085.66;5086369;28;20028;-82
2021/10/26 05:04:29;;;;;;;59.50;28.05;;;;;;;1.48;63.61;99100.41;5071041;28;20073;-82
2021/10/26 05:06:54;;;;;;;62.70;28.23;;;;;;;1.47;63.90;99097.94;5090336;28;20028;-82
2021/10/26 05:09:21;;;;;;;65.30;28.23;;;;;;;1.47;64.28;99096.06;5090223;28;20039;-82
2021/10/26 05:11:47;;;;;;;54.58;25.33;;;;;;;1.47;64.58;99095.25;5088053;28;20042;-82
2021/10/26 05:14:12;;;;;;;59.70;28.48;;;;;;;1.48;64.55;99100.41;5088769;28;20036;-81
2021/10/26 05:16:38;;;;;;;51.40;25.58;;;;;;;1.51;64.25;99103.72;5090819;28;20031;-81
2021/10/26 05:19:05;;;;;;;46.97;24.77;;;;;;;1.57;65.07;99100.16;5090667;28;20031;-82
2021/10/26 05:21:31;;;;;;;50.42;23.95;;;;;;;1.67;65.18;99088.81;5069685;28;20047;-81
2021/10/26 05:23:56;;;;;;;39.92;20.08;;;;;;;1.76;65.33;99103.72;5100014;28;20020;-81
2021/10/26 05:26:22;;;;;;;38.63;19.23;;;;;;;1.87;65.42;99102.16;5105822;28;20024;-81
2021/10/26 05:28:48;;;;;;;35.45;19.60;;;;;;;1.95;65.67;99101.06;5090658;28;20040;-81
2021/10/26 05:31:15;;;;;;;38.17;20.85;;;;;;;2.00;65.49;99109.31;5092532;28;20055;-81
2021/10/26 05:33:40;;;;;;;40.67;20.77;;;;;;;2.08;65.34;99099.03;5090542;28;20472;-81
2021/10/26 05:36:06;;;;;;;47.53;24.05;;;;;;;2.16;65.43;99102.50;5087254;28;20089;-80
2021/10/26 05:38:32;;;;;;;45.78;22.88;;;;;;;2.26;65.92;99105.47;5072331;28;20032;-81
2021/10/26 05:40:58;;;;;;;37.72;18.95;;;;;;;2.33;65.22;99094.59;5087510;28;20020;-81
2021/10/26 05:43:25;;;;;;;41.30;21.00;;;;;;;2.38;64.98;99098.28;5089133;28;20025;-81
2021/10/26 05:45:52;;;;;;;36.95;18.88;;;;;;;2.42;64.99;99104.06;5089536;28;20017;-81
2021/10/26 05:48:17;;;;;;;44.63;21.38;;;;;;;2.50;65.27;99105.63;5086330;28;20032;-81
2021/10/26 05:50:44;;;;;;;36.33;19.65;;;;;;;2.61;64.77;99112.16;5100676;28;20032;-81
2021/10/26 05:53:09;;;;;;;35.75;18.67;;;;;;;2.70;65.67;99105.38;5090154;28;20031;-81
2021/10/26 05:55:35;;;;;;;35.83;18.77;;;;;;;2.77;65.67;99105.28;5087002;28;20020;-81
2021/10/26 05:58:00;;;;;;;33.63;18.15;;;;;;;2.82;65.19;99111.69;5090689;28;20032;-81
2021/10/26 06:00:26;;;;;;;46.65;23.83;;;;;;;2.91;65.59;99117.59;5088766;28;20040;-80
2021/10/26 06:02:52;;;;;;;50.88;27.98;;;;;;;3.01;64.81;99110.81;5088984;28;20028;-80
2021/10/26 06:05:18;;;;;;;58.15;28.98;;;;;;;3.09;65.30;99116.72;5091853;28;20043;-80
2021/10/26 06:07:43;;;;;;;53.30;28.45;;;;;;;3.17;65.61;99122.88;5097675;28;20028;-80
2021/10/26 06:10:10;;;;;;;50.13;28.25;;;;;;;3.27;65.20;99120.41;5090695;28;20472;-81
2021/10/26 06:12:38;;;;;;;49.33;26.88;;;;;;;3.37;65.11;99122.56;5071131;28;20065;-81
2021/10/26 06:15:04;;;;;;;34.92;21.73;;;;;;;3.46;65.75;99113.06;5089060;28;20465;-81
2021/10/26 06:17:30;;;;;;;39.17;20.42;;;;;;;3.56;66.19;99118.69;5090925;28;20042;-81
2021/10/26 06:19:55;;;;;;;30.13;17.92;;;;;;;3.65;65.79;99124.63;5072007;28;20396;-81
2021/10/26 06:22:21;;;;;;;33.92;18.55;;;;;;;3.72;65.32;99124.50;5090001;28;20032;-82
2021/10/26 06:24:48;;;;;;;30.73;15.75;;;;;;;3.79;65.18;99130.66;5090230;28;20496;-81
2021/10/26 06:27:13;;;;;;;19.33;10.25;;;;;;;3.93;65.95;99136.66;5093853;28;20044;-80
2021/10/26 06:29:39;;;;;;;20.60;9.45;;;;;;;4.09;65.28;99128.84;5094528;28;20072;-82
2021/10/26 06:32:05;;;;;;;22.45;10.20;;;;;;;4.26;65.61;99129.81;5095622;28;20026;-81
2021/10/26 06:34:31;;;;;;;22.08;10.50;;;;;;;4.43;66.08;99134.50;5101381;28;20032;-81
2021/10/26 06:36:56;;;;;;;24.52;11.07;;;;;;;4.61;65.64;99141.69;5093418;28;20027;-81
2021/10/26 06:39:22;;;;;;;19.13;9.95;;;;;;;4.72;65.84;99140.78;5090959;28;20036;-82
2021/10/26 06:41:50;;;;;;;16.08;9.00;;;;;;;4.83;65.30;99141.00;5088904;28;20020;-81
2021/10/26 06:44:16;;;;;;;20.70;10.90;;;;;;;4.95;65.16;99149.97;5093244;28;20039;-82
2021/10/26 06:46:42;;;;;;;20.63;10.70;;;;;;;5.06;65.21;99153.69;5090308;28;20027;-81
2021/10/26 06:49:07;;;;;;;24.02;10.98;;;;;;;5.17;65.27;99155.53;5091479;28;20020;-81
2021/10/26 06:51:33;;;;;;;25.45;11.48;;;;;;;5.26;64.93;99155.16;5099048;28;20117;-81
2021/10/26 06:54:00;;;;;;;20.20;9.98;;;;;;;5.32;64.86;99155.00;5098592;28;20030;-82
2021/10/26 06:56:27;;;;;;;18.80;10.70;;;;;;;5.41;64.62;99163.56;5087849;28;20111;-81
2021/10/26 06:58:52;;;;;;;24.23;12.15;;;;;;;5.47;64.22;99159.88;5093196;28;20035;-83
2021/10/26 07:01:18;;;;;;;22.48;12.32;;;;;;;5.53;64.26;99160.78;5087559;28;20020;-79
2021/10/26 07:03:43;;;;;;;28.17;16.08;;;;;;;5.59;63.79;99165.25;5088718;28;20553;-81
2021/10/26 07:06:09;;;;;;;24.60;12.77;;;;;;;5.65;64.13;99168.88;5100448;28;20513;-81
2021/10/26 07:08:35;;;;;;;30.63;15.85;;;;;;;5.70;64.09;99163.53;5089807;28;20442;-82
2021/10/26 07:11:01;;;;;;;24.33;14.07;;;;;;;5.77;64.08;99166.91;5086356;28;20396;-82
2021/10/26 07:13:27;;;;;;;26.23;13.35;;;;;;;5.85;63.47;99165.69;5079065;28;20111;-82
2021/10/26 07:15:52;;;;;;;22.63;15.70;;;;;;;5.90;63.59;99162.19;5076141;28;20085;-82
2021/10/26 07:18:18;;;;;;;26.00;13.93;;;;;;;5.97;63.51;99171.84;5093512;28;20031;-79
2021/10/26 07:20:43;;;;;;;22.50;13.98;;;;;;;6.03;63.49;99170.06;5094925;28;20077;-82
2021/10/26 07:23:09;;;;;;;29.80;14.20;;;;;;;6.12;63.33;99167.75;5111193;28;20533;-82
2021/10/26 07:25:35;;;;;;;84.95;40.90;;;;;;;6.22;63.20;99172.50;5102925;28;20024;-81
2021/10/26 07:28:00;;;;;;;84.45;42.95;;;;;;;6.26;63.47;99173.66;5072349;28;20169;-84
2021/10/26 07:30:35;;;;;;;84.50;41.00;;;;;;;6.28;63.13;99170.72;5091133;28;20106;-82
2021/10/26 07:33:02;;;;;;;81.25;40.88;;;;;;;6.30;63.18;99171.28;5102842;28;20051;-85
2021/10/26 07:35:36;;;;;;;78.05;37.10;;;;;;;6.35;63.28;99176.78;5091738;28;20062;-82
2021/10/26 07:38:02;;;;;;;69.85;31.05;;;;;;;6.40;63.30;99169.53;5097722;28;20080;-82
2021/10/26 07:40:27;;;;;;;57.35;28.98;;;;;;;6.47;63.16;99163.06;5089805;28;20028;-74
2021/10/26 07:42:53;;;;;;;47.42;24.48;;;;;;;6.54;63.19;99160.97;5104665;28;20558;-79
2021/10/26 07:45:18;;;;;;;41.03;18.17;;;;;;;6.61;63.01;99152.63;5104285;28;20031;-79
2021/10/26 07:47:44;;;;;;;41.35;19.58;;;;;;;6.64;62.49;99157.56;5087355;28;20216;-80
2021/10/26 07:50:10;;;;;;;36.97;18.10;;;;;;;6.68;62.30;99162.25;5104217;28;20472;-80
2021/10/26 07:52:36;;;;;;;37.40;18.88;;;;;;;6.74;62.31;99165.03;5090307;28;20024;-80
2021/10/26 07:55:03;;;;;;;33.63;17.55;;;;;;;6.82;62.41;99162.69;5099287;28;20045;-80
2021/10/26 07:57:30;;;;;;;34.53;17.77;;;;;;;6.91;61.90;99164.97;5085325;28;20030;-81
2021/10/26 07:59:55;;;;;;;41.42;19.95;;;;;;;6.99;61.77;99156.34;5085232;28;20032;-81
2021/10/26 08:02:21;;;;;;;38.28;18.20;;;;;;;7.09;61.30;99153.75;5084504;28;20035;-83
2021/10/26 08:04:51;;;;;;;33.13;17.23;;;;;;;7.21;61.26;99148.13;5087450;28;20033;-82
2021/10/26 08:07:18;;;;;;;33.60;16.98;;;;;;;7.33;61.18;99155.34;5086217;28;20024;-84
2021/10/26 08:09:51;;;;;;;31.30;14.73;;;;;;;7.44;60.74;99155.19;5087586;28;20054;-82
2021/10/26 08:12:19;;;;;;;34.35;16.80;;;;;;;7.55;60.57;99152.53;5071364;28;20028;-84
2021/10/26 08:14:45;;;;;;;34.65;15.40;;;;;;;7.66;60.64;99161.66;5064956;28;20043;-83
2021/10/26 08:17:10;;;;;;;31.85;14.85;;;;;;;7.77;60.14;99146.19;5089570;28;20028;-84
2021/10/26 08:19:44;;;;;;;35.03;16.17;;;;;;;7.89;60.08;99149.56;5076467;28;20028;-83
2021/10/26 08:22:16;;;;;;;33.00;15.45;;;;;;;8.03;59.92;99158.94;5083283;28;20032;-77
2021/10/26 08:24:44;;;;;;;27.80;13.90;;;;;;;8.13;58.90;99155.47;5093145;28;20043;-82
2021/10/26 08:27:16;;;;;;;34.45;16.75;;;;;;;8.22;59.18;99153.06;5082523;28;20047;-81
2021/10/26 08:30:17;;;;;;;33.28;17.70;;;;;;;8.34;59.31;99148.22;5090551;28;20023;-83
2021/10/26 08:35:31;;;;;;;34.28;16.13;;;;;;;8.60;57.65;99153.84;5039970;28;20037;-77
2021/10/26 08:38:02;;;;;;;30.95;15.05;;;;;;;8.71;58.33;99143.78;5089834;28;20047;-77
2021/10/26 08:40:29;;;;;;;34.20;16.38;;;;;;;8.85;58.59;99146.84;5086642;28;20035;-84
2021/10/26 08:42:57;;;;;;;28.30;13.70;;;;;;;8.99;56.68;99149.06;5071650;28;20024;-79
2021/10/26 08:45:25;;;;;;;29.92;14.73;;;;;;;9.07;57.14;99151.28;5085686;28;20031;-81
2021/10/26 08:47:50;;;;;;;27.45;12.80;;;;;;;9.16;56.30;99148.84;5088703;28;20035;-79
2021/10/26 08:50:18;;;;;;;24.70;13.95;;;;;;;9.26;57.16;99151.63;5090051;28;20345;-82
2021/10/26 08:52:44;;;;;;;23.35;12.30;;;;;;;9.42;57.21;99144.25;5099755;28;20049;-81
2021/10/26 08:55:10;;;;;;;21.58;11.55;;;;;;;9.56;55.57;99146.47;5085457;28;20023;-81
2021/10/26 08:57:36;;;;;;;22.77;10.35;;;;;;;9.65;53.99;99131.94;5087592;28;20024;-83
2021/10/26 09:00:07;;;;;;;29.00;11.82;;;;;;;9.75;55.53;99139.34;5065551;28;20028;-86
2021/10/26 09:02:38;;;;;;;20.17;10.00;;;;;;;9.85;54.22;99124.00;5088934;28;20036;-86
2021/10/26 09:05:08;;;;;;;25.08;11.13;;;;;;;9.89;54.67;99139.59;5088884;28;20427;-86
2021/10/26 09:07:35;;;;;;;19.23;9.85;;;;;;;9.98;54.48;99127.00;5077408;28;20477;-86
2021/10/26 09:10:12;;;;;;;17.63;9.98;;;;;;;10.11;54.71;99131.09;5104313;28;20061;-80
2021/10/26 09:17:53;;;;;;;11.30;7.20;;;;;;;10.56;52.72;99130.44;5089509;28;20519;-81
2021/10/26 09:20:26;;;;;;;9.93;6.28;;;;;;;10.64;52.85;99127.13;5078174;28;20021;-82
2021/10/26 09:22:56;;;;;;;11.85;6.50;;;;;;;10.68;51.88;99136.44;5086285;28;20020;-84
2021/10/26 09:25:40;;;;;;;11.65;5.93;;;;;;;10.71;50.45;99122.19;5086609;28;20069;-85
2021/10/26 09:28:16;;;;;;;13.10;7.57;;;;;;;10.75;50.76;99132.59;5063857;28;20582;-81
2021/10/26 09:30:58;;;;;;;12.57;6.82;;;;;;;10.77;51.22;99122.97;5083196;28;20387;-81
2021/10/26 09:33:39;;;;;;;12.05;6.38;;;;;;;10.76;50.53;99123.25;5070020;28;20032;-77
2021/10/26 09:36:25;;;;;;;8.55;6.03;;;;;;;10.79;51.33;99119.97;5073793;28;20051;-82
2021/10/26 09:39:02;;;;;;;9.50;5.88;;;;;;;10.92;49.52;99111.09;5084120;28;20073;-81
2021/10/26 09:41:28;;;;;;;9.43;5.63;;;;;;;10.95;48.87;99131.69;5082222;28;20055;-79
2021/10/26 09:44:11;;;;;;;10.07;6.07;;;;;;;10.86;48.49;99140.50;5064686;28;20136;-82
2021/10/26 09:46:37;;;;;;;10.68;6.35;;;;;;;10.79;48.14;99111.72;5085410;28;20028;-82
2021/10/26 09:49:02;;;;;;;9.23;5.90;;;;;;;10.76;47.55;99123.25;5086664;28;20039;-79
2021/10/26 09:51:30;;;;;;;9.80;5.53;;;;;;;10.75;48.48;99105.97;5092999;28;20463;-81
2021/10/26 09:53:59;;;;;;;20.52;13.20;;;;;;;10.76;48.68;99091.16;5087922;28;20031;-80
2021/10/26 09:56:25;;;;;;;15.98;10.85;;;;;;;10.80;48.81;99116.91;5094553;28;20034;-80
2021/10/26 09:59:14;;;;;;;11.43;6.80;;;;;;;10.85;49.49;99100.44;5093061;28;20028;-83
2021/10/26 10:02:00;;;;;;;10.73;6.60;;;;;;;10.94;49.86;99106.13;5091012;28;20039;-84
2021/10/26 10:04:28;;;;;;;13.18;6.75;;;;;;;11.05;49.04;99095.91;5075608;28;20173;-85
2021/10/26 10:06:53;;;;;;;14.68;8.13;;;;;;;11.12;49.55;99092.88;5103239;28;20032;-78
2021/10/26 10:09:23;;;;;;;13.77;7.88;;;;;;;11.14;48.14;99086.00;5091976;28;20472;-78
2021/10/26 10:12:14;;;;;;;11.43;7.78;;;;;;;11.16;48.66;99085.72;5099006;28;20436;-77
2021/10/26 10:14:47;;;;;;;10.40;8.02;;;;;;;11.17;47.79;99084.63;5105564;28;20116;-79
2021/10/26 10:17:14;;;;;;;13.55;7.28;;;;;;;11.16;48.60;99080.22;5090951;28;20040;-78
2021/10/26 10:19:40;;;;;;;13.88;7.90;;;;;;;11.19;47.74;99073.34;5096878;28;20028;-78
2021/10/26 10:22:07;;;;;;;11.57;6.18;;;;;;;11.21;48.18;99069.19;5107900;28;20031;-77
2021/10/26 10:24:38;;;;;;;11.32;6.22;;;;;;;11.27;47.35;99069.97;5090554;28;20161;-76
2021/10/26 10:27:05;;;;;;;11.38;6.30;;;;;;;11.31;47.46;99066.38;5091763;28;20539;-77
2021/10/26 10:29:32;;;;;;;11.20;6.50;;;;;;;11.42;47.45;99052.56;5101662;28;20487;-79
2021/10/26 10:31:58;;;;;;;8.80;5.18;;;;;;;11.55;47.61;99062.91;5094512;28;20023;-74
2021/10/26 10:34:23;;;;;;;7.80;5.38;;;;;;;11.65;47.20;99055.66;5081561;28;20039;-74
2021/10/26 10:36:52;;;;;;;12.00;7.47;;;;;;;11.68;45.72;99060.56;5094278;28;20545;-74
2021/10/26 10:39:24;;;;;;;9.38;6.15;;;;;;;11.64;46.20;99045.78;5093018;28;20034;-75
2021/10/26 10:42:09;;;;;;;12.65;7.93;;;;;;;11.68;46.87;99044.09;5106904;28;20043;-74
2021/10/26 10:44:36;;;;;;;13.05;8.35;;;;;;;11.77;46.99;99042.34;5086270;28;20024;-74
2021/10/26 10:47:03;;;;;;;19.63;10.25;;;;;;;11.88;47.16;99046.66;5068567;28;20590;-74
2021/10/26 10:49:35;;;;;;;24.65;13.02;;;;;;;12.03;46.87;99044.88;5087251;28;20056;-74
2021/10/26 10:52:08;;;;;;;12.75;8.93;;;;;;;12.11;46.94;99059.94;5109365;28;20639;-78
2021/10/26 10:54:56;;;;;;;17.05;10.60;;;;;;;12.07;46.54;99051.44;5102720;28;20024;-74
2021/10/26 10:57:32;;;;;;;17.70;8.73;;;;;;;12.00;47.07;99051.78;5087531;28;20092;-73
2021/10/26 11:00:04;;;;;;;14.10;8.40;;;;;;;11.90;46.07;99047.19;5084580;28;20012;-73
2021/10/26 11:02:49;;;;;;;12.98;8.60;;;;;;;11.78;47.20;99046.75;5085242;28;20067;-74
2021/10/26 11:05:30;;;;;;;14.95;8.70;;;;;;;11.76;47.37;99047.06;5085453;28;20016;-74
2021/10/26 11:07:56;;;;;;;13.68;9.35;;;;;;;11.74;47.55;99048.44;5083798;28;20047;-75
2021/10/26 11:10:22;;;;;;;18.83;10.57;;;;;;;11.72;47.45;99039.66;5086891;28;20831;-75
2021/10/26 11:12:48;;;;;;;16.70;11.32;;;;;;;11.67;47.56;99042.44;5087150;28;20027;-75
2021/10/26 11:15:21;;;;;;;14.38;8.75;;;;;;;11.65;47.40;99045.50;5092196;28;20032;-74
2021/10/26 11:17:51;;;;;;;14.43;11.05;;;;;;;11.68;47.36;99044.09;5095198;28;20027;-75
2021/10/26 11:20:26;;;;;;;12.73;8.05;;;;;;;11.68;47.95;99042.19;5098896;28;20035;-75
2021/10/26 11:23:02;;;;;;;12.25;8.40;;;;;;;11.69;47.84;99040.22;5110523;28;20724;-75
2021/10/26 11:25:36;;;;;;;13.63;9.32;;;;;;;11.71;48.52;99041.59;5095108;28;20423;-75
2021/10/26 11:28:15;;;;;;;22.67;13.65;;;;;;;11.78;48.36;99038.50;5110947;28;20079;-75
2021/10/26 11:30:47;;;;;;;35.22;19.20;;;;;;;11.85;48.22;99041.72;5096759;28;20472;-74
2021/10/26 11:33:12;;;;;;;23.88;12.80;;;;;;;11.90;48.32;99041.69;5088795;28;20026;-75
2021/10/26 11:35:49;;;;;;;13.73;8.38;;;;;;;11.94;48.33;99041.91;5089085;28;20029;-75
2021/10/26 11:38:23;;;;;;;15.65;9.77;;;;;;;11.96;48.74;99042.44;5093398;28;20032;-74